sensor_id;sensor_type;location;lat;lon;timestamp;temperature;humidity
37460;DHT22;23318;50.966;5.284;2022-11-20T00:00:24;4.90;99.90
37460;DHT22;23318;50.966;5.284;2022-11-20T00:02:50;4.90;99.90
37460;DHT22;23318;50.966;5.284;2022-11-20T00:05:16;5.00;99.90
37460;DHT22;23318;50.966;5.284;2022-11-20T00:07:42;5.10;99.90
37460;DHT22;23318;50.966;5.284;2022-11-20T00:10:08;5.00;99.90
37460;DHT22;23318;50.966;5.284;2022-11-20T00:12:33;5.10;99.90
37460;DHT22;23318;50.966;5.284;2022-11-20T00:14:59;5.20;99.90
37460;DHT22;23318;50.966;5.284;2022-11-20T00:17:25;5.10;99.90
37460;DHT22;23318;50.966;5.284;2022-11-20T00:19:51;5.00;99.90
37460;DHT22;23318;50.966;5.284;2022-11-20T00:22:16;5.00;99.90
37460;DHT22;23318;50.966;5.284;2022-11-20T00:24:42;5.10;99.90
37460;DHT22;23318;50.966;5.284;2022-11-20T00:27:07;5.10;99.90
37460;DHT22;23318;50.966;5.284;2022-11-20T00:29:33;5.00;99.90
37460;DHT22;23318;50.966;5.284;2022-11-20T00:31:59;5.00;99.90
37460;DHT22;23318;50.966;5.284;2022-11-20T00:34:24;5.00;99.90
37460;DHT22;23318;50.966;5.284;2022-11-20T00:36:50;4.90;99.90
37460;DHT22;23318;50.966;5.284;2022-11-20T00:39:15;4.80;99.90
37460;DHT22;23318;50.966;5.284;2022-11-20T00:41:41;4.80;99.90
37460;DHT22;23318;50.966;5.284;2022-11-20T00:44:07;4.70;99.90
37460;DHT22;23318;50.966;5.284;2022-11-20T00:46:32;4.40;99.90
37460;DHT22;23318;50.966;5.284;2022-11-20T00:48:58;4.10;99.90
37460;DHT22;23318;50.966;5.284;2022-11-20T00:51:25;4.10;99.90
37460;DHT22;23318;50.966;5.284;2022-11-20T00:53:52;4.50;99.90
37460;DHT22;23318;50.966;5.284;2022-11-20T00:56:20;4.50;99.90
37460;DHT22;23318;50.966;5.284;2022-11-20T00:58:47;4.30;99.90
37460;DHT22;23318;50.966;5.284;2022-11-20T01:01:18;4.00;99.90
37460;DHT22;23318;50.966;5.284;2022-11-20T01:03:49;4.00;99.90
37460;DHT22;23318;50.966;5.284;2022-11-20T01:06:27;4.20;99.90
37460;DHT22;23318;50.966;5.284;2022-11-20T01:08:55;3.90;99.90
37460;DHT22;23318;50.966;5.284;2022-11-20T01:11:24;3.80;99.90
37460;DHT22;23318;50.966;5.284;2022-11-20T01:13:51;4.10;99.90
37460;DHT22;23318;50.966;5.284;2022-11-20T01:16:26;4.50;99.90
37460;DHT22;23318;50.966;5.284;2022-11-20T01:18:56;4.70;99.90
37460;DHT22;23318;50.966;5.284;2022-11-20T01:21:24;4.40;99.90
37460;DHT22;23318;50.966;5.284;2022-11-20T01:23:51;4.10;99.90
37460;DHT22;23318;50.966;5.284;2022-11-20T01:26:20;4.00;99.90
37460;DHT22;23318;50.966;5.284;2022-11-20T01:28:47;4.10;99.90
37460;DHT22;23318;50.966;5.284;2022-11-20T01:31:17;4.00;99.90
37460;DHT22;23318;50.966;5.284;2022-11-20T01:33:44;4.30;99.90
37460;DHT22;23318;50.966;5.284;2022-11-20T01:36:11;4.20;99.90
37460;DHT22;23318;50.966;5.284;2022-11-20T01:38:37;4.20;99.90
37460;DHT22;23318;50.966;5.284;2022-11-20T01:41:04;4.30;99.90
37460;DHT22;23318;50.966;5.284;2022-11-20T01:43:30;4.40;99.90
37460;DHT22;23318;50.966;5.284;2022-11-20T01:46:18;4.60;99.90
37460;DHT22;23318;50.966;5.284;2022-11-20T01:53:50;4.50;99.90
37460;DHT22;23318;50.966;5.284;2022-11-20T01:56:17;4.30;99.90
37460;DHT22;23318;50.966;5.284;2022-11-20T01:58:51;4.20;99.90
37460;DHT22;23318;50.966;5.284;2022-11-20T02:01:18;4.80;99.90
37460;DHT22;23318;50.966;5.284;2022-11-20T02:03:44;4.50;99.90
37460;DHT22;23318;50.966;5.284;2022-11-20T02:06:16;4.20;99.90
37460;DHT22;23318;50.966;5.284;2022-11-20T02:08:42;4.30;99.90
37460;DHT22;23318;50.966;5.284;2022-11-20T02:11:08;4.60;99.90
37460;DHT22;23318;50.966;5.284;2022-11-20T02:13:34;4.70;99.90
37460;DHT22;23318;50.966;5.284;2022-11-20T02:18:43;5.10;99.90
37460;DHT22;23318;50.966;5.284;2022-11-20T02:21:15;4.80;99.90
37460;DHT22;23318;50.966;5.284;2022-11-20T02:26:30;4.10;99.90
37460;DHT22;23318;50.966;5.284;2022-11-20T02:28:57;4.00;99.90
37460;DHT22;23318;50.966;5.284;2022-11-20T02:31:23;4.20;99.90
37460;DHT22;23318;50.966;5.284;2022-11-20T02:33:55;4.40;99.90
37460;DHT22;23318;50.966;5.284;2022-11-20T02:36:21;4.00;99.90
37460;DHT22;23318;50.966;5.284;2022-11-20T02:38:48;3.70;99.90
37460;DHT22;23318;50.966;5.284;2022-11-20T02:41:14;3.80;99.90
37460;DHT22;23318;50.966;5.284;2022-11-20T02:43:40;3.60;99.90
37460;DHT22;23318;50.966;5.284;2022-11-20T02:46:07;3.80;99.90
37460;DHT22;23318;50.966;5.284;2022-11-20T02:48:32;4.10;99.90
37460;DHT22;23318;50.966;5.284;2022-11-20T02:50:58;3.90;99.90
37460;DHT22;23318;50.966;5.284;2022-11-20T02:53:24;3.70;99.90
37460;DHT22;23318;50.966;5.284;2022-11-20T02:55:49;3.60;99.90
37460;DHT22;23318;50.966;5.284;2022-11-20T02:58:15;4.00;99.90
37460;DHT22;23318;50.966;5.284;2022-11-20T03:00:40;4.60;99.90
37460;DHT22;23318;50.966;5.284;2022-11-20T03:03:06;4.70;99.90
37460;DHT22;23318;50.966;5.284;2022-11-20T03:05:32;5.00;99.90
37460;DHT22;23318;50.966;5.284;2022-11-20T03:07:57;4.80;99.90
37460;DHT22;23318;50.966;5.284;2022-11-20T03:10:23;4.80;99.90
37460;DHT22;23318;50.966;5.284;2022-11-20T03:12:53;4.50;99.90
37460;DHT22;23318;50.966;5.284;2022-11-20T03:15:19;4.40;99.90
37460;DHT22;23318;50.966;5.284;2022-11-20T03:17:45;4.60;99.90
37460;DHT22;23318;50.966;5.284;2022-11-20T03:20:11;4.70;99.90
37460;DHT22;23318;50.966;5.284;2022-11-20T03:22:36;4.50;99.90
37460;DHT22;23318;50.966;5.284;2022-11-20T03:25:02;4.30;99.90
37460;DHT22;23318;50.966;5.284;2022-11-20T03:27:33;4.50;99.90
37460;DHT22;23318;50.966;5.284;2022-11-20T03:29:59;4.40;99.90
37460;DHT22;23318;50.966;5.284;2022-11-20T03:32:24;4.90;99.90
37460;DHT22;23318;50.966;5.284;2022-11-20T03:34:50;5.10;99.90
37460;DHT22;23318;50.966;5.284;2022-11-20T03:37:17;5.40;99.90
37460;DHT22;23318;50.966;5.284;2022-11-20T03:39:42;5.70;99.90
37460;DHT22;23318;50.966;5.284;2022-11-20T03:42:08;5.30;99.90
37460;DHT22;23318;50.966;5.284;2022-11-20T03:44:54;5.40;99.90
37460;DHT22;23318;50.966;5.284;2022-11-20T03:47:20;5.50;99.90
37460;DHT22;23318;50.966;5.284;2022-11-20T03:49:46;5.60;99.90
37460;DHT22;23318;50.966;5.284;2022-11-20T03:52:11;5.20;99.90
37460;DHT22;23318;50.966;5.284;2022-11-20T03:54:37;5.30;99.90
37460;DHT22;23318;50.966;5.284;2022-11-20T03:57:03;5.20;99.90
37460;DHT22;23318;50.966;5.284;2022-11-20T03:59:28;4.90;99.90
37460;DHT22;23318;50.966;5.284;2022-11-20T04:01:54;5.00;99.90
37460;DHT22;23318;50.966;5.284;2022-11-20T04:04:19;4.70;99.90
37460;DHT22;23318;50.966;5.284;2022-11-20T04:06:45;4.60;99.90
37460;DHT22;23318;50.966;5.284;2022-11-20T04:09:11;4.90;99.90
37460;DHT22;23318;50.966;5.284;2022-11-20T04:11:39;5.10;99.90
37460;DHT22;23318;50.966;5.284;2022-11-20T04:14:06;5.10;99.90
37460;DHT22;23318;50.966;5.284;2022-11-20T04:16:35;5.20;99.90
37460;DHT22;23318;50.966;5.284;2022-11-20T04:19:03;5.20;99.90
37460;DHT22;23318;50.966;5.284;2022-11-20T04:21:30;5.00;99.90
37460;DHT22;23318;50.966;5.284;2022-11-20T04:23:57;4.60;99.90
37460;DHT22;23318;50.966;5.284;2022-11-20T04:26:24;4.70;99.90
37460;DHT22;23318;50.966;5.284;2022-11-20T04:28:50;4.90;99.90
37460;DHT22;23318;50.966;5.284;2022-11-20T04:31:19;5.00;99.90
37460;DHT22;23318;50.966;5.284;2022-11-20T04:33:46;4.60;99.90
37460;DHT22;23318;50.966;5.284;2022-11-20T04:36:20;4.40;99.90
37460;DHT22;23318;50.966;5.284;2022-11-20T04:38:46;4.10;99.90
37460;DHT22;23318;50.966;5.284;2022-11-20T04:41:17;4.00;99.90
37460;DHT22;23318;50.966;5.284;2022-11-20T04:43:47;4.00;99.90
37460;DHT22;23318;50.966;5.284;2022-11-20T04:46:14;4.40;99.90
37460;DHT22;23318;50.966;5.284;2022-11-20T04:48:40;4.30;99.90
37460;DHT22;23318;50.966;5.284;2022-11-20T04:51:06;4.20;99.90
37460;DHT22;23318;50.966;5.284;2022-11-20T04:53:32;4.40;99.90
37460;DHT22;23318;50.966;5.284;2022-11-20T04:56:05;4.80;99.90
37460;DHT22;23318;50.966;5.284;2022-11-20T04:58:31;5.10;99.90
37460;DHT22;23318;50.966;5.284;2022-11-20T05:01:05;5.00;99.90
37460;DHT22;23318;50.966;5.284;2022-11-20T05:03:31;5.00;99.90
37460;DHT22;23318;50.966;5.284;2022-11-20T05:06:00;5.00;99.90
37460;DHT22;23318;50.966;5.284;2022-11-20T05:08:27;4.60;99.90
37460;DHT22;23318;50.966;5.284;2022-11-20T05:10:52;4.30;99.90
37460;DHT22;23318;50.966;5.284;2022-11-20T05:13:18;4.50;99.90
37460;DHT22;23318;50.966;5.284;2022-11-20T05:15:43;5.00;99.90
37460;DHT22;23318;50.966;5.284;2022-11-20T05:18:09;4.70;99.90
37460;DHT22;23318;50.966;5.284;2022-11-20T05:20:35;4.30;99.90
37460;DHT22;23318;50.966;5.284;2022-11-20T05:23:01;4.50;99.90
37460;DHT22;23318;50.966;5.284;2022-11-20T05:25:27;4.40;99.90
37460;DHT22;23318;50.966;5.284;2022-11-20T05:27:53;4.20;99.90
37460;DHT22;23318;50.966;5.284;2022-11-20T05:30:19;4.00;99.90
37460;DHT22;23318;50.966;5.284;2022-11-20T05:32:44;4.10;99.90
37460;DHT22;23318;50.966;5.284;2022-11-20T05:35:10;4.50;99.90
37460;DHT22;23318;50.966;5.284;2022-11-20T05:37:36;5.10;99.90
37460;DHT22;23318;50.966;5.284;2022-11-20T05:40:01;5.30;99.90
37460;DHT22;23318;50.966;5.284;2022-11-20T05:42:30;5.50;99.90
37460;DHT22;23318;50.966;5.284;2022-11-20T05:45:00;4.50;99.90
37460;DHT22;23318;50.966;5.284;2022-11-20T05:47:28;4.00;99.90
37460;DHT22;23318;50.966;5.284;2022-11-20T05:49:54;3.90;99.90
37460;DHT22;23318;50.966;5.284;2022-11-20T05:52:20;3.80;99.90
37460;DHT22;23318;50.966;5.284;2022-11-20T05:54:45;3.90;99.90
37460;DHT22;23318;50.966;5.284;2022-11-20T05:57:11;4.10;99.90
37460;DHT22;23318;50.966;5.284;2022-11-20T05:59:36;4.40;99.90
37460;DHT22;23318;50.966;5.284;2022-11-20T06:02:02;4.30;99.90
37460;DHT22;23318;50.966;5.284;2022-11-20T06:04:28;4.50;99.90
37460;DHT22;23318;50.966;5.284;2022-11-20T06:06:54;4.10;99.90
37460;DHT22;23318;50.966;5.284;2022-11-20T06:09:19;3.80;99.90
37460;DHT22;23318;50.966;5.284;2022-11-20T06:11:45;3.80;99.90
37460;DHT22;23318;50.966;5.284;2022-11-20T06:14:10;4.00;99.90
37460;DHT22;23318;50.966;5.284;2022-11-20T06:16:36;4.40;99.90
37460;DHT22;23318;50.966;5.284;2022-11-20T06:19:01;4.50;99.90
37460;DHT22;23318;50.966;5.284;2022-11-20T06:21:27;4.70;99.90
37460;DHT22;23318;50.966;5.284;2022-11-20T06:23:53;4.90;99.90
37460;DHT22;23318;50.966;5.284;2022-11-20T06:26:23;5.10;99.90
37460;DHT22;23318;50.966;5.284;2022-11-20T06:28:49;5.00;99.90
37460;DHT22;23318;50.966;5.284;2022-11-20T06:31:18;5.20;99.90
37460;DHT22;23318;50.966;5.284;2022-11-20T06:33:44;5.60;99.90
37460;DHT22;23318;50.966;5.284;2022-11-20T06:36:11;5.30;99.90
37460;DHT22;23318;50.966;5.284;2022-11-20T06:38:38;5.30;99.90
37460;DHT22;23318;50.966;5.284;2022-11-20T06:41:05;5.20;99.90
37460;DHT22;23318;50.966;5.284;2022-11-20T06:43:30;4.70;99.90
37460;DHT22;23318;50.966;5.284;2022-11-20T06:45:57;4.80;99.90
37460;DHT22;23318;50.966;5.284;2022-11-20T06:48:25;4.90;99.90
37460;DHT22;23318;50.966;5.284;2022-11-20T06:50:51;5.30;99.90
37460;DHT22;23318;50.966;5.284;2022-11-20T06:53:16;5.80;99.90
37460;DHT22;23318;50.966;5.284;2022-11-20T06:55:46;6.00;99.90
37460;DHT22;23318;50.966;5.284;2022-11-20T06:58:13;6.10;99.90
37460;DHT22;23318;50.966;5.284;2022-11-20T07:00:39;6.00;99.90
37460;DHT22;23318;50.966;5.284;2022-11-20T07:03:06;5.80;99.90
37460;DHT22;23318;50.966;5.284;2022-11-20T07:05:32;5.40;99.90
37460;DHT22;23318;50.966;5.284;2022-11-20T07:07:58;5.40;99.90
37460;DHT22;23318;50.966;5.284;2022-11-20T07:10:25;5.40;99.90
37460;DHT22;23318;50.966;5.284;2022-11-20T07:12:54;5.30;99.90
37460;DHT22;23318;50.966;5.284;2022-11-20T07:15:21;5.30;99.90
37460;DHT22;23318;50.966;5.284;2022-11-20T07:17:48;5.60;99.90
37460;DHT22;23318;50.966;5.284;2022-11-20T07:20:14;5.70;99.90
37460;DHT22;23318;50.966;5.284;2022-11-20T07:22:39;5.80;99.90
37460;DHT22;23318;50.966;5.284;2022-11-20T07:25:06;5.80;99.90
37460;DHT22;23318;50.966;5.284;2022-11-20T07:27:31;5.90;99.90
37460;DHT22;23318;50.966;5.284;2022-11-20T07:29:57;5.60;99.90
37460;DHT22;23318;50.966;5.284;2022-11-20T07:32:23;5.70;99.90
37460;DHT22;23318;50.966;5.284;2022-11-20T07:34:49;5.80;99.90
37460;DHT22;23318;50.966;5.284;2022-11-20T07:37:15;5.80;99.90
37460;DHT22;23318;50.966;5.284;2022-11-20T07:39:41;5.80;99.90
37460;DHT22;23318;50.966;5.284;2022-11-20T07:42:07;5.70;99.90
37460;DHT22;23318;50.966;5.284;2022-11-20T07:44:33;5.70;99.90
37460;DHT22;23318;50.966;5.284;2022-11-20T07:46:59;5.70;99.90
37460;DHT22;23318;50.966;5.284;2022-11-20T07:49:25;5.60;99.90
37460;DHT22;23318;50.966;5.284;2022-11-20T07:51:51;5.50;99.90
37460;DHT22;23318;50.966;5.284;2022-11-20T07:54:19;5.50;99.90
37460;DHT22;23318;50.966;5.284;2022-11-20T07:56:45;5.70;99.90
37460;DHT22;23318;50.966;5.284;2022-11-20T07:59:11;6.00;99.90
37460;DHT22;23318;50.966;5.284;2022-11-20T08:01:38;5.80;99.90
37460;DHT22;23318;50.966;5.284;2022-11-20T08:04:04;5.90;99.90
37460;DHT22;23318;50.966;5.284;2022-11-20T08:06:29;6.30;99.90
37460;DHT22;23318;50.966;5.284;2022-11-20T08:08:55;6.00;99.90
37460;DHT22;23318;50.966;5.284;2022-11-20T08:11:21;6.30;99.90
37460;DHT22;23318;50.966;5.284;2022-11-20T08:14:05;6.20;99.90
37460;DHT22;23318;50.966;5.284;2022-11-20T08:16:37;5.60;99.90
37460;DHT22;23318;50.966;5.284;2022-11-20T08:19:03;6.00;99.90
37460;DHT22;23318;50.966;5.284;2022-11-20T08:21:30;6.20;99.90
37460;DHT22;23318;50.966;5.284;2022-11-20T08:23:57;6.20;99.90
37460;DHT22;23318;50.966;5.284;2022-11-20T08:26:23;6.50;99.90
37460;DHT22;23318;50.966;5.284;2022-11-20T08:28:49;6.60;99.90
37460;DHT22;23318;50.966;5.284;2022-11-20T08:31:18;6.40;99.90
37460;DHT22;23318;50.966;5.284;2022-11-20T08:33:43;6.40;99.90
37460;DHT22;23318;50.966;5.284;2022-11-20T08:36:09;6.10;99.90
37460;DHT22;23318;50.966;5.284;2022-11-20T08:38:34;6.30;99.90
37460;DHT22;23318;50.966;5.284;2022-11-20T08:41:02;6.30;99.90
37460;DHT22;23318;50.966;5.284;2022-11-20T08:44:05;6.50;99.90
37460;DHT22;23318;50.966;5.284;2022-11-20T08:46:39;6.50;99.90
37460;DHT22;23318;50.966;5.284;2022-11-20T08:49:08;6.70;99.90
37460;DHT22;23318;50.966;5.284;2022-11-20T08:51:35;6.90;99.90
37460;DHT22;23318;50.966;5.284;2022-11-20T08:54:01;6.60;99.90
37460;DHT22;23318;50.966;5.284;2022-11-20T08:56:27;6.70;99.90
37460;DHT22;23318;50.966;5.284;2022-11-20T08:58:52;6.50;99.90
37460;DHT22;23318;50.966;5.284;2022-11-20T09:01:19;6.50;99.90
37460;DHT22;23318;50.966;5.284;2022-11-20T09:03:45;7.00;99.90
37460;DHT22;23318;50.966;5.284;2022-11-20T09:06:11;7.00;99.90
37460;DHT22;23318;50.966;5.284;2022-11-20T09:08:37;6.60;99.90
37460;DHT22;23318;50.966;5.284;2022-11-20T09:11:03;6.50;99.90
37460;DHT22;23318;50.966;5.284;2022-11-20T09:13:30;6.90;99.90
37460;DHT22;23318;50.966;5.284;2022-11-20T09:15:58;7.30;99.90
37460;DHT22;23318;50.966;5.284;2022-11-20T09:18:25;7.50;99.90
37460;DHT22;23318;50.966;5.284;2022-11-20T09:20:51;7.60;99.90
37460;DHT22;23318;50.966;5.284;2022-11-20T09:23:17;7.50;99.90
37460;DHT22;23318;50.966;5.284;2022-11-20T09:25:43;7.80;99.90
37460;DHT22;23318;50.966;5.284;2022-11-20T09:28:09;7.70;99.90
37460;DHT22;23318;50.966;5.284;2022-11-20T09:30:35;7.60;99.90
37460;DHT22;23318;50.966;5.284;2022-11-20T09:33:01;7.40;99.90
37460;DHT22;23318;50.966;5.284;2022-11-20T09:35:29;7.30;99.90
37460;DHT22;23318;50.966;5.284;2022-11-20T09:37:54;7.40;99.90
37460;DHT22;23318;50.966;5.284;2022-11-20T09:40:26;7.50;99.90
37460;DHT22;23318;50.966;5.284;2022-11-20T09:43:19;7.60;99.90
37460;DHT22;23318;50.966;5.284;2022-11-20T09:46:07;8.00;99.90
37460;DHT22;23318;50.966;5.284;2022-11-20T09:51:25;8.30;99.90
37460;DHT22;23318;50.966;5.284;2022-11-20T09:54:30;8.30;99.90
37460;DHT22;23318;50.966;5.284;2022-11-20T09:57:00;8.30;99.90
37460;DHT22;23318;50.966;5.284;2022-11-20T09:59:35;8.00;99.90
37460;DHT22;23318;50.966;5.284;2022-11-20T10:02:25;8.00;99.90
37460;DHT22;23318;50.966;5.284;2022-11-20T10:05:12;7.80;99.90
37460;DHT22;23318;50.966;5.284;2022-11-20T10:07:53;7.80;99.90
37460;DHT22;23318;50.966;5.284;2022-11-20T10:10:35;7.70;99.90
37460;DHT22;23318;50.966;5.284;2022-11-20T10:24:28;7.80;99.90
37460;DHT22;23318;50.966;5.284;2022-11-20T10:29:38;7.60;99.90
37460;DHT22;23318;50.966;5.284;2022-11-20T10:32:14;7.90;99.90
37460;DHT22;23318;50.966;5.284;2022-11-20T10:35:32;8.00;99.90
37460;DHT22;23318;50.966;5.284;2022-11-20T10:37:41;8.20;99.90
37460;DHT22;23318;50.966;5.284;2022-11-20T10:42:44;8.10;99.90
37460;DHT22;23318;50.966;5.284;2022-11-20T10:48:11;8.30;99.90
37460;DHT22;23318;50.966;5.284;2022-11-20T10:50:44;8.30;99.90
37460;DHT22;23318;50.966;5.284;2022-11-20T10:56:07;8.40;99.90
37460;DHT22;23318;50.966;5.284;2022-11-20T11:01:22;7.60;99.90
37460;DHT22;23318;50.966;5.284;2022-11-20T11:03:52;8.10;99.90
37460;DHT22;23318;50.966;5.284;2022-11-20T11:09:10;8.60;99.90
37460;DHT22;23318;50.966;5.284;2022-11-20T11:11:38;8.70;99.90
37460;DHT22;23318;50.966;5.284;2022-11-20T11:14:10;8.80;99.90
37460;DHT22;23318;50.966;5.284;2022-11-20T11:16:50;8.30;99.90
37460;DHT22;23318;50.966;5.284;2022-11-20T11:19:16;8.60;99.90
37460;DHT22;23318;50.966;5.284;2022-11-20T11:21:50;9.10;99.90
37460;DHT22;23318;50.966;5.284;2022-11-20T11:24:34;9.30;99.90
37460;DHT22;23318;50.966;5.284;2022-11-20T11:27:11;9.30;99.90
37460;DHT22;23318;50.966;5.284;2022-11-20T11:29:37;9.20;99.90
37460;DHT22;23318;50.966;5.284;2022-11-20T11:32:13;9.10;99.90
37460;DHT22;23318;50.966;5.284;2022-11-20T11:34:40;9.10;99.90
37460;DHT22;23318;50.966;5.284;2022-11-20T11:37:18;8.90;99.90
37460;DHT22;23318;50.966;5.284;2022-11-20T11:39:46;8.70;99.90
37460;DHT22;23318;50.966;5.284;2022-11-20T11:42:17;8.80;99.90
37460;DHT22;23318;50.966;5.284;2022-11-20T11:44:47;9.20;99.90
37460;DHT22;23318;50.966;5.284;2022-11-20T11:47:45;9.50;99.90
37460;DHT22;23318;50.966;5.284;2022-11-20T11:52:58;9.50;99.90
37460;DHT22;23318;50.966;5.284;2022-11-20T12:01:34;10.20;99.90
37460;DHT22;23318;50.966;5.284;2022-11-20T12:04:20;10.20;99.90
37460;DHT22;23318;50.966;5.284;2022-11-20T12:06:53;10.30;99.90
37460;DHT22;23318;50.966;5.284;2022-11-20T12:09:25;10.40;99.90
37460;DHT22;23318;50.966;5.284;2022-11-20T12:11:58;10.60;99.90
37460;DHT22;23318;50.966;5.284;2022-11-20T12:14:37;11.00;99.90
37460;DHT22;23318;50.966;5.284;2022-11-20T12:17:03;11.30;99.90
37460;DHT22;23318;50.966;5.284;2022-11-20T12:19:34;11.40;99.90
37460;DHT22;23318;50.966;5.284;2022-11-20T12:40:54;11.30;99.90
37460;DHT22;23318;50.966;5.284;2022-11-20T12:43:24;11.50;99.90
37460;DHT22;23318;50.966;5.284;2022-11-20T12:49:29;11.20;99.90
37460;DHT22;23318;50.966;5.284;2022-11-20T12:55:02;10.00;99.90
37460;DHT22;23318;50.966;5.284;2022-11-20T13:00:15;10.00;99.90
37460;DHT22;23318;50.966;5.284;2022-11-20T13:02:58;10.00;99.90
37460;DHT22;23318;50.966;5.284;2022-11-20T13:05:58;10.10;99.90
37460;DHT22;23318;50.966;5.284;2022-11-20T13:08:28;10.00;99.90
37460;DHT22;23318;50.966;5.284;2022-11-20T13:11:07;9.90;99.90
37460;DHT22;23318;50.966;5.284;2022-11-20T13:16:47;9.50;99.90
37460;DHT22;23318;50.966;5.284;2022-11-20T13:19:16;9.30;99.90
37460;DHT22;23318;50.966;5.284;2022-11-20T13:21:45;9.10;99.90
37460;DHT22;23318;50.966;5.284;2022-11-20T13:27:16;8.60;99.90
37460;DHT22;23318;50.966;5.284;2022-11-20T13:29:58;8.40;99.90
37460;DHT22;23318;50.966;5.284;2022-11-20T13:32:26;8.20;99.90
37460;DHT22;23318;50.966;5.284;2022-11-20T13:35:02;8.10;99.90
37460;DHT22;23318;50.966;5.284;2022-11-20T13:37:36;8.10;99.90
37460;DHT22;23318;50.966;5.284;2022-11-20T13:40:22;8.00;99.90
37460;DHT22;23318;50.966;5.284;2022-11-20T13:45:34;8.00;99.90
37460;DHT22;23318;50.966;5.284;2022-11-20T13:48:04;7.90;99.90
37460;DHT22;23318;50.966;5.284;2022-11-20T13:56:00;8.00;99.90
37460;DHT22;23318;50.966;5.284;2022-11-20T14:01:26;8.20;99.90
37460;DHT22;23318;50.966;5.284;2022-11-20T14:03:53;8.30;99.90
37460;DHT22;23318;50.966;5.284;2022-11-20T14:06:26;8.40;99.90
37460;DHT22;23318;50.966;5.284;2022-11-20T14:08:53;8.70;99.90
37460;DHT22;23318;50.966;5.284;2022-11-20T14:11:21;8.70;99.90
37460;DHT22;23318;50.966;5.284;2022-11-20T14:16:21;8.80;99.90
37460;DHT22;23318;50.966;5.284;2022-11-20T14:18:46;8.70;99.90
37460;DHT22;23318;50.966;5.284;2022-11-20T14:21:21;8.70;99.90
37460;DHT22;23318;50.966;5.284;2022-11-20T14:23:47;8.60;99.90
37460;DHT22;23318;50.966;5.284;2022-11-20T14:26:17;8.40;99.90
37460;DHT22;23318;50.966;5.284;2022-11-20T14:28:48;8.40;99.90
37460;DHT22;23318;50.966;5.284;2022-11-20T14:31:22;8.50;99.90
37460;DHT22;23318;50.966;5.284;2022-11-20T14:33:49;8.40;99.90
37460;DHT22;23318;50.966;5.284;2022-11-20T14:36:18;8.30;99.90
37460;DHT22;23318;50.966;5.284;2022-11-20T14:38:45;8.30;99.90
37460;DHT22;23318;50.966;5.284;2022-11-20T14:41:21;8.30;99.90
37460;DHT22;23318;50.966;5.284;2022-11-20T14:43:54;8.20;99.90
37460;DHT22;23318;50.966;5.284;2022-11-20T14:46:21;8.20;99.90
37460;DHT22;23318;50.966;5.284;2022-11-20T14:48:51;8.30;99.90
37460;DHT22;23318;50.966;5.284;2022-11-20T14:51:37;8.10;99.90
37460;DHT22;23318;50.966;5.284;2022-11-20T14:54:19;8.00;99.90
37460;DHT22;23318;50.966;5.284;2022-11-20T14:57:02;7.90;99.90
37460;DHT22;23318;50.966;5.284;2022-11-20T14:59:33;8.10;99.90
37460;DHT22;23318;50.966;5.284;2022-11-20T15:02:09;8.30;99.90
37460;DHT22;23318;50.966;5.284;2022-11-20T15:04:57;8.20;99.90
37460;DHT22;23318;50.966;5.284;2022-11-20T15:07:30;8.00;99.90
37460;DHT22;23318;50.966;5.284;2022-11-20T15:10:21;7.90;99.90
37460;DHT22;23318;50.966;5.284;2022-11-20T15:17:51;8.20;99.90
37460;DHT22;23318;50.966;5.284;2022-11-20T15:20:17;7.70;99.90
37460;DHT22;23318;50.966;5.284;2022-11-20T15:22:43;7.50;99.90
37460;DHT22;23318;50.966;5.284;2022-11-20T15:25:13;7.70;99.90
37460;DHT22;23318;50.966;5.284;2022-11-20T15:27:41;7.80;99.90
37460;DHT22;23318;50.966;5.284;2022-11-20T15:30:14;7.90;99.90
37460;DHT22;23318;50.966;5.284;2022-11-20T15:32:42;7.90;99.90
37460;DHT22;23318;50.966;5.284;2022-11-20T15:35:08;7.60;99.90
37460;DHT22;23318;50.966;5.284;2022-11-20T15:37:35;7.60;99.90
37460;DHT22;23318;50.966;5.284;2022-11-20T15:40:01;7.70;99.90
37460;DHT22;23318;50.966;5.284;2022-11-20T15:42:26;7.50;99.90
37460;DHT22;23318;50.966;5.284;2022-11-20T15:44:52;7.50;99.90
37460;DHT22;23318;50.966;5.284;2022-11-20T15:47:19;7.50;99.90
37460;DHT22;23318;50.966;5.284;2022-11-20T15:49:45;7.60;99.90
37460;DHT22;23318;50.966;5.284;2022-11-20T15:52:11;7.60;99.90
37460;DHT22;23318;50.966;5.284;2022-11-20T15:54:37;7.50;99.90
37460;DHT22;23318;50.966;5.284;2022-11-20T15:57:03;7.60;99.90
37460;DHT22;23318;50.966;5.284;2022-11-20T15:59:29;7.50;99.90
37460;DHT22;23318;50.966;5.284;2022-11-20T16:01:54;7.50;99.90
37460;DHT22;23318;50.966;5.284;2022-11-20T16:04:20;7.60;99.90
37460;DHT22;23318;50.966;5.284;2022-11-20T16:06:45;7.70;99.90
37460;DHT22;23318;50.966;5.284;2022-11-20T16:09:11;7.70;99.90
37460;DHT22;23318;50.966;5.284;2022-11-20T16:11:37;7.60;99.90
37460;DHT22;23318;50.966;5.284;2022-11-20T16:14:04;7.60;99.90
37460;DHT22;23318;50.966;5.284;2022-11-20T16:16:48;7.60;99.90
37460;DHT22;23318;50.966;5.284;2022-11-20T16:19:14;7.60;99.90
37460;DHT22;23318;50.966;5.284;2022-11-20T16:21:41;7.60;99.90
37460;DHT22;23318;50.966;5.284;2022-11-20T16:24:10;7.60;99.90
37460;DHT22;23318;50.966;5.284;2022-11-20T16:26:37;7.60;99.90
37460;DHT22;23318;50.966;5.284;2022-11-20T16:29:04;7.70;99.90
37460;DHT22;23318;50.966;5.284;2022-11-20T16:31:30;7.70;99.90
37460;DHT22;23318;50.966;5.284;2022-11-20T16:34:00;7.80;99.90
37460;DHT22;23318;50.966;5.284;2022-11-20T16:36:27;7.80;99.90
37460;DHT22;23318;50.966;5.284;2022-11-20T16:38:58;7.80;99.90
37460;DHT22;23318;50.966;5.284;2022-11-20T16:41:26;7.90;99.90
37460;DHT22;23318;50.966;5.284;2022-11-20T16:43:56;7.90;99.90
37460;DHT22;23318;50.966;5.284;2022-11-20T16:46:24;8.00;99.90
37460;DHT22;23318;50.966;5.284;2022-11-20T16:49:13;8.10;99.90
37460;DHT22;23318;50.966;5.284;2022-11-20T16:51:39;8.10;99.90
37460;DHT22;23318;50.966;5.284;2022-11-20T16:54:07;8.10;99.90
37460;DHT22;23318;50.966;5.284;2022-11-20T16:56:33;8.10;99.90
37460;DHT22;23318;50.966;5.284;2022-11-20T16:59:00;8.00;99.90
37460;DHT22;23318;50.966;5.284;2022-11-20T17:01:27;8.10;99.90
37460;DHT22;23318;50.966;5.284;2022-11-20T17:03:58;8.20;99.90
37460;DHT22;23318;50.966;5.284;2022-11-20T17:06:30;8.20;99.90
37460;DHT22;23318;50.966;5.284;2022-11-20T17:08:56;8.20;99.90
37460;DHT22;23318;50.966;5.284;2022-11-20T17:11:22;8.20;99.90
37460;DHT22;23318;50.966;5.284;2022-11-20T17:13:48;8.20;99.90
37460;DHT22;23318;50.966;5.284;2022-11-20T17:16:17;8.10;99.90
37460;DHT22;23318;50.966;5.284;2022-11-20T17:18:43;8.10;99.90
37460;DHT22;23318;50.966;5.284;2022-11-20T17:21:10;8.10;99.90
37460;DHT22;23318;50.966;5.284;2022-11-20T17:23:39;8.10;99.90
37460;DHT22;23318;50.966;5.284;2022-11-20T17:26:16;8.10;99.90
37460;DHT22;23318;50.966;5.284;2022-11-20T17:28:44;8.00;99.90
37460;DHT22;23318;50.966;5.284;2022-11-20T17:31:12;7.90;99.90
37460;DHT22;23318;50.966;5.284;2022-11-20T17:33:39;7.90;99.90
37460;DHT22;23318;50.966;5.284;2022-11-20T17:36:07;7.90;99.90
37460;DHT22;23318;50.966;5.284;2022-11-20T17:38:33;7.90;99.90